sensor_id;sensor_type;location;lat;lon;timestamp;temperature;humidity
13606;DHT22;6874;52.084;5.090;2023-02-24T00:01:38;4.90;99.90
13606;DHT22;6874;52.084;5.090;2023-02-24T00:04:09;4.80;99.90
13606;DHT22;6874;52.084;5.090;2023-02-24T00:06:38;4.80;99.90
13606;DHT22;6874;52.084;5.090;2023-02-24T00:09:25;4.80;99.90
13606;DHT22;6874;52.084;5.090;2023-02-24T00:11:56;4.70;99.90
13606;DHT22;6874;52.084;5.090;2023-02-24T00:14:25;4.70;99.90
13606;DHT22;6874;52.084;5.090;2023-02-24T00:16:52;4.70;99.90
13606;DHT22;6874;52.084;5.090;2023-02-24T00:19:20;4.60;99.90
13606;DHT22;6874;52.084;5.090;2023-02-24T00:21:47;4.60;99.90
13606;DHT22;6874;52.084;5.090;2023-02-24T00:24:13;4.60;99.90
13606;DHT22;6874;52.084;5.090;2023-02-24T00:26:39;4.70;99.90
13606;DHT22;6874;52.084;5.090;2023-02-24T00:29:07;4.50;99.90
13606;DHT22;6874;52.084;5.090;2023-02-24T00:31:33;4.50;99.90
13606;DHT22;6874;52.084;5.090;2023-02-24T00:34:04;4.60;99.90
13606;DHT22;6874;52.084;5.090;2023-02-24T00:36:31;4.40;99.90
13606;DHT22;6874;52.084;5.090;2023-02-24T00:39:08;4.50;99.90
13606;DHT22;6874;52.084;5.090;2023-02-24T00:41:36;4.40;99.90
13606;DHT22;6874;52.084;5.090;2023-02-24T00:44:04;4.40;99.90
13606;DHT22;6874;52.084;5.090;2023-02-24T00:46:38;4.40;99.90
13606;DHT22;6874;52.084;5.090;2023-02-24T00:49:08;4.40;99.90
13606;DHT22;6874;52.084;5.090;2023-02-24T00:51:36;4.30;99.90
13606;DHT22;6874;52.084;5.090;2023-02-24T00:54:03;4.30;99.90
13606;DHT22;6874;52.084;5.090;2023-02-24T00:56:29;4.30;99.90
13606;DHT22;6874;52.084;5.090;2023-02-24T00:58:56;4.20;99.90
13606;DHT22;6874;52.084;5.090;2023-02-24T01:01:25;4.20;99.90
13606;DHT22;6874;52.084;5.090;2023-02-24T01:03:51;4.20;99.90
13606;DHT22;6874;52.084;5.090;2023-02-24T01:06:20;4.10;99.90
13606;DHT22;6874;52.084;5.090;2023-02-24T01:08:47;4.20;99.90
13606;DHT22;6874;52.084;5.090;2023-02-24T01:11:16;4.10;99.90
13606;DHT22;6874;52.084;5.090;2023-02-24T01:14:04;4.10;99.90
13606;DHT22;6874;52.084;5.090;2023-02-24T01:16:29;4.10;99.90
13606;DHT22;6874;52.084;5.090;2023-02-24T01:18:55;4.00;99.90
13606;DHT22;6874;52.084;5.090;2023-02-24T01:21:20;4.00;99.90
13606;DHT22;6874;52.084;5.090;2023-02-24T01:23:47;3.90;99.90
13606;DHT22;6874;52.084;5.090;2023-02-24T01:26:14;3.90;99.90
13606;DHT22;6874;52.084;5.090;2023-02-24T01:28:40;3.90;99.90
13606;DHT22;6874;52.084;5.090;2023-02-24T01:31:06;3.90;99.90
13606;DHT22;6874;52.084;5.090;2023-02-24T01:33:33;3.80;99.90
13606;DHT22;6874;52.084;5.090;2023-02-24T01:36:09;3.80;99.90
13606;DHT22;6874;52.084;5.090;2023-02-24T01:38:36;3.80;99.90
13606;DHT22;6874;52.084;5.090;2023-02-24T01:41:04;3.80;99.90
13606;DHT22;6874;52.084;5.090;2023-02-24T01:46:18;3.80;99.90
13606;DHT22;6874;52.084;5.090;2023-02-24T01:48:49;3.70;99.90
13606;DHT22;6874;52.084;5.090;2023-02-24T01:51:15;3.70;99.90
13606;DHT22;6874;52.084;5.090;2023-02-24T01:53:41;3.70;99.90
13606;DHT22;6874;52.084;5.090;2023-02-24T01:56:08;3.70;99.90
13606;DHT22;6874;52.084;5.090;2023-02-24T01:58:38;3.60;99.90
13606;DHT22;6874;52.084;5.090;2023-02-24T02:01:06;3.60;99.90
13606;DHT22;6874;52.084;5.090;2023-02-24T02:03:36;3.60;99.90
13606;DHT22;6874;52.084;5.090;2023-02-24T02:06:07;3.60;99.90
13606;DHT22;6874;52.084;5.090;2023-02-24T02:08:35;3.60;99.90
13606;DHT22;6874;52.084;5.090;2023-02-24T02:11:07;3.50;99.90
13606;DHT22;6874;52.084;5.090;2023-02-24T02:13:34;3.50;99.90
13606;DHT22;6874;52.084;5.090;2023-02-24T02:16:24;3.50;99.90
13606;DHT22;6874;52.084;5.090;2023-02-24T02:21:53;3.50;99.90
13606;DHT22;6874;52.084;5.090;2023-02-24T02:30:13;3.40;99.90
13606;DHT22;6874;52.084;5.090;2023-02-24T02:32:55;3.40;99.90
13606;DHT22;6874;52.084;5.090;2023-02-24T02:41:06;3.30;99.90
13606;DHT22;6874;52.084;5.090;2023-02-24T02:46:23;3.30;99.90
13606;DHT22;6874;52.084;5.090;2023-02-24T02:49:02;3.20;99.90
13606;DHT22;6874;52.084;5.090;2023-02-24T02:51:32;3.20;99.90
13606;DHT22;6874;52.084;5.090;2023-02-24T02:54:27;3.20;99.90
13606;DHT22;6874;52.084;5.090;2023-02-24T02:57:01;3.10;99.90
13606;DHT22;6874;52.084;5.090;2023-02-24T02:59:30;3.10;99.90
13606;DHT22;6874;52.084;5.090;2023-02-24T03:01:57;3.10;99.90
13606;DHT22;6874;52.084;5.090;2023-02-24T03:04:39;3.10;99.90
13606;DHT22;6874;52.084;5.090;2023-02-24T03:07:08;3.10;99.90
13606;DHT22;6874;52.084;5.090;2023-02-24T03:09:38;3.10;99.90
13606;DHT22;6874;52.084;5.090;2023-02-24T03:12:10;3.00;99.90
13606;DHT22;6874;52.084;5.090;2023-02-24T03:14:39;3.00;99.90
13606;DHT22;6874;52.084;5.090;2023-02-24T03:17:11;3.00;99.90
13606;DHT22;6874;52.084;5.090;2023-02-24T03:19:40;3.00;99.90
13606;DHT22;6874;52.084;5.090;2023-02-24T03:22:16;3.00;99.90
13606;DHT22;6874;52.084;5.090;2023-02-24T03:24:44;2.90;99.90
13606;DHT22;6874;52.084;5.090;2023-02-24T03:27:18;3.00;99.90
13606;DHT22;6874;52.084;5.090;2023-02-24T03:29:52;2.90;99.90
13606;DHT22;6874;52.084;5.090;2023-02-24T03:32:30;2.90;99.90
13606;DHT22;6874;52.084;5.090;2023-02-24T03:35:06;2.90;99.90
13606;DHT22;6874;52.084;5.090;2023-02-24T03:37:34;2.90;99.90
13606;DHT22;6874;52.084;5.090;2023-02-24T03:40:04;2.80;99.90
13606;DHT22;6874;52.084;5.090;2023-02-24T03:42:47;2.90;99.90
13606;DHT22;6874;52.084;5.090;2023-02-24T03:45:15;2.80;99.90
13606;DHT22;6874;52.084;5.090;2023-02-24T03:47:41;2.80;99.90
13606;DHT22;6874;52.084;5.090;2023-02-24T03:50:17;2.80;99.90
13606;DHT22;6874;52.084;5.090;2023-02-24T03:55:53;2.80;99.90
13606;DHT22;6874;52.084;5.090;2023-02-24T04:01:17;2.80;99.90
13606;DHT22;6874;52.084;5.090;2023-02-24T04:04:04;2.80;99.90
13606;DHT22;6874;52.084;5.090;2023-02-24T04:12:18;2.80;99.90
13606;DHT22;6874;52.084;5.090;2023-02-24T04:15:03;2.80;99.90
13606;DHT22;6874;52.084;5.090;2023-02-24T04:18:00;2.80;99.90
13606;DHT22;6874;52.084;5.090;2023-02-24T04:20:28;2.80;99.90
13606;DHT22;6874;52.084;5.090;2023-02-24T04:22:58;2.80;99.90
13606;DHT22;6874;52.084;5.090;2023-02-24T04:25:27;2.80;99.90
13606;DHT22;6874;52.084;5.090;2023-02-24T04:27:55;2.80;99.90
13606;DHT22;6874;52.084;5.090;2023-02-24T04:30:25;2.80;99.90
13606;DHT22;6874;52.084;5.090;2023-02-24T04:32:52;2.80;99.90
13606;DHT22;6874;52.084;5.090;2023-02-24T04:35:20;2.80;99.90
13606;DHT22;6874;52.084;5.090;2023-02-24T04:37:48;2.80;99.90
13606;DHT22;6874;52.084;5.090;2023-02-24T04:40:16;2.80;99.90
13606;DHT22;6874;52.084;5.090;2023-02-24T04:42:43;2.80;99.90
13606;DHT22;6874;52.084;5.090;2023-02-24T04:45:19;2.80;99.90
13606;DHT22;6874;52.084;5.090;2023-02-24T04:47:47;2.80;99.90
13606;DHT22;6874;52.084;5.090;2023-02-24T04:50:18;2.80;99.90
13606;DHT22;6874;52.084;5.090;2023-02-24T04:52:49;2.80;99.90
13606;DHT22;6874;52.084;5.090;2023-02-24T04:55:15;2.80;99.90
13606;DHT22;6874;52.084;5.090;2023-02-24T04:57:41;2.80;99.90
13606;DHT22;6874;52.084;5.090;2023-02-24T05:00:11;2.80;99.90
13606;DHT22;6874;52.084;5.090;2023-02-24T05:02:48;2.80;99.90
13606;DHT22;6874;52.084;5.090;2023-02-24T05:05:16;2.80;99.90
13606;DHT22;6874;52.084;5.090;2023-02-24T05:07:42;2.80;99.90
13606;DHT22;6874;52.084;5.090;2023-02-24T05:10:13;2.80;99.90
13606;DHT22;6874;52.084;5.090;2023-02-24T05:12:40;2.80;99.90
13606;DHT22;6874;52.084;5.090;2023-02-24T05:15:07;2.80;99.90
13606;DHT22;6874;52.084;5.090;2023-02-24T05:17:32;2.80;99.90
13606;DHT22;6874;52.084;5.090;2023-02-24T05:19:59;2.80;99.90
13606;DHT22;6874;52.084;5.090;2023-02-24T05:22:43;2.80;99.90
13606;DHT22;6874;52.084;5.090;2023-02-24T05:25:09;2.80;99.90
13606;DHT22;6874;52.084;5.090;2023-02-24T05:27:38;2.80;99.90
13606;DHT22;6874;52.084;5.090;2023-02-24T05:30:04;2.80;99.90
13606;DHT22;6874;52.084;5.090;2023-02-24T05:32:35;2.80;99.90
13606;DHT22;6874;52.084;5.090;2023-02-24T05:35:00;2.80;99.90
13606;DHT22;6874;52.084;5.090;2023-02-24T05:37:26;2.80;99.90
13606;DHT22;6874;52.084;5.090;2023-02-24T05:39:55;2.80;99.90
13606;DHT22;6874;52.084;5.090;2023-02-24T05:42:25;2.80;99.90
13606;DHT22;6874;52.084;5.090;2023-02-24T05:44:52;2.80;99.90
13606;DHT22;6874;52.084;5.090;2023-02-24T05:47:18;2.80;99.90
13606;DHT22;6874;52.084;5.090;2023-02-24T05:49:44;2.80;99.90
13606;DHT22;6874;52.084;5.090;2023-02-24T05:52:10;2.80;99.90
13606;DHT22;6874;52.084;5.090;2023-02-24T05:54:38;2.80;99.90
13606;DHT22;6874;52.084;5.090;2023-02-24T05:57:07;2.80;99.90
13606;DHT22;6874;52.084;5.090;2023-02-24T05:59:33;2.80;99.90
13606;DHT22;6874;52.084;5.090;2023-02-24T06:02:02;2.80;99.90
13606;DHT22;6874;52.084;5.090;2023-02-24T06:04:32;2.80;99.90
13606;DHT22;6874;52.084;5.090;2023-02-24T06:07:14;2.80;99.90
13606;DHT22;6874;52.084;5.090;2023-02-24T06:09:44;2.80;99.90
13606;DHT22;6874;52.084;5.090;2023-02-24T06:12:10;2.80;99.90
13606;DHT22;6874;52.084;5.090;2023-02-24T06:14:36;2.80;99.90
13606;DHT22;6874;52.084;5.090;2023-02-24T06:17:02;2.80;99.90
13606;DHT22;6874;52.084;5.090;2023-02-24T06:19:28;2.80;99.90
13606;DHT22;6874;52.084;5.090;2023-02-24T06:21:57;2.80;99.90
13606;DHT22;6874;52.084;5.090;2023-02-24T06:24:27;2.80;99.90
13606;DHT22;6874;52.084;5.090;2023-02-24T06:26:54;2.80;99.90
13606;DHT22;6874;52.084;5.090;2023-02-24T06:29:30;2.80;99.90
13606;DHT22;6874;52.084;5.090;2023-02-24T06:31:56;2.80;99.90
13606;DHT22;6874;52.084;5.090;2023-02-24T06:34:25;2.80;99.90
13606;DHT22;6874;52.084;5.090;2023-02-24T06:36:52;2.80;99.90
13606;DHT22;6874;52.084;5.090;2023-02-24T06:39:18;2.80;99.90
13606;DHT22;6874;52.084;5.090;2023-02-24T06:41:44;2.80;99.90
13606;DHT22;6874;52.084;5.090;2023-02-24T06:44:10;2.80;99.90
13606;DHT22;6874;52.084;5.090;2023-02-24T06:46:36;2.80;99.90
13606;DHT22;6874;52.084;5.090;2023-02-24T06:49:02;2.80;99.90
13606;DHT22;6874;52.084;5.090;2023-02-24T06:51:28;2.90;99.90
13606;DHT22;6874;52.084;5.090;2023-02-24T06:53:57;2.90;99.90
13606;DHT22;6874;52.084;5.090;2023-02-24T06:56:24;2.90;99.90
13606;DHT22;6874;52.084;5.090;2023-02-24T06:58:52;2.90;99.90
13606;DHT22;6874;52.084;5.090;2023-02-24T07:01:25;2.90;99.90
13606;DHT22;6874;52.084;5.090;2023-02-24T07:03:55;2.90;99.90
13606;DHT22;6874;52.084;5.090;2023-02-24T07:06:44;2.90;99.90
13606;DHT22;6874;52.084;5.090;2023-02-24T07:09:12;2.90;99.90
13606;DHT22;6874;52.084;5.090;2023-02-24T07:11:40;2.90;99.90
13606;DHT22;6874;52.084;5.090;2023-02-24T07:14:07;2.90;99.90
13606;DHT22;6874;52.084;5.090;2023-02-24T07:16:34;2.90;99.90
13606;DHT22;6874;52.084;5.090;2023-02-24T07:19:03;2.90;99.90
13606;DHT22;6874;52.084;5.090;2023-02-24T07:21:29;3.00;99.90
13606;DHT22;6874;52.084;5.090;2023-02-24T07:24:06;3.00;99.90
13606;DHT22;6874;52.084;5.090;2023-02-24T07:26:33;3.00;99.90
13606;DHT22;6874;52.084;5.090;2023-02-24T07:28:59;3.00;99.90
13606;DHT22;6874;52.084;5.090;2023-02-24T07:31:29;3.00;99.90
13606;DHT22;6874;52.084;5.090;2023-02-24T07:33:58;3.00;99.90
13606;DHT22;6874;52.084;5.090;2023-02-24T07:36:26;3.00;99.90
13606;DHT22;6874;52.084;5.090;2023-02-24T07:38:55;3.00;99.90
13606;DHT22;6874;52.084;5.090;2023-02-24T07:41:26;3.00;99.90
13606;DHT22;6874;52.084;5.090;2023-02-24T07:43:53;3.10;99.90
13606;DHT22;6874;52.084;5.090;2023-02-24T07:46:25;3.10;99.90
13606;DHT22;6874;52.084;5.090;2023-02-24T07:48:53;3.10;99.90
13606;DHT22;6874;52.084;5.090;2023-02-24T07:51:21;3.10;99.90
13606;DHT22;6874;52.084;5.090;2023-02-24T07:53:52;3.10;99.90
13606;DHT22;6874;52.084;5.090;2023-02-24T07:56:20;3.20;99.90
13606;DHT22;6874;52.084;5.090;2023-02-24T07:58:52;3.20;99.90
13606;DHT22;6874;52.084;5.090;2023-02-24T08:01:27;3.20;99.90
13606;DHT22;6874;52.084;5.090;2023-02-24T08:03:55;3.20;99.90
13606;DHT22;6874;52.084;5.090;2023-02-24T08:06:22;3.20;99.90
13606;DHT22;6874;52.084;5.090;2023-02-24T08:08:54;3.30;99.90
13606;DHT22;6874;52.084;5.090;2023-02-24T08:11:29;3.30;99.90
13606;DHT22;6874;52.084;5.090;2023-02-24T08:14:03;3.30;99.90
13606;DHT22;6874;52.084;5.090;2023-02-24T08:16:35;3.30;99.90
13606;DHT22;6874;52.084;5.090;2023-02-24T08:19:11;3.30;99.90
13606;DHT22;6874;52.084;5.090;2023-02-24T08:21:39;3.40;99.90
13606;DHT22;6874;52.084;5.090;2023-02-24T08:24:11;3.40;99.90
13606;DHT22;6874;52.084;5.090;2023-02-24T08:26:43;3.40;99.90
13606;DHT22;6874;52.084;5.090;2023-02-24T08:29:10;3.40;99.90
13606;DHT22;6874;52.084;5.090;2023-02-24T08:31:35;3.50;99.90
13606;DHT22;6874;52.084;5.090;2023-02-24T08:34:01;3.50;99.90
13606;DHT22;6874;52.084;5.090;2023-02-24T08:36:29;3.50;99.90
13606;DHT22;6874;52.084;5.090;2023-02-24T08:38:54;3.50;99.90
13606;DHT22;6874;52.084;5.090;2023-02-24T08:41:24;3.60;99.90
13606;DHT22;6874;52.084;5.090;2023-02-24T08:43:54;3.60;99.90
13606;DHT22;6874;52.084;5.090;2023-02-24T08:46:22;3.60;99.90
13606;DHT22;6874;52.084;5.090;2023-02-24T08:48:55;3.60;99.90
13606;DHT22;6874;52.084;5.090;2023-02-24T08:53:52;3.70;99.90
13606;DHT22;6874;52.084;5.090;2023-02-24T08:56:23;3.70;99.90
13606;DHT22;6874;52.084;5.090;2023-02-24T08:58:52;3.80;99.90
13606;DHT22;6874;52.084;5.090;2023-02-24T09:01:29;3.80;99.90
13606;DHT22;6874;52.084;5.090;2023-02-24T09:04:00;3.80;99.90
13606;DHT22;6874;52.084;5.090;2023-02-24T09:06:47;3.80;99.90
13606;DHT22;6874;52.084;5.090;2023-02-24T09:09:17;3.80;99.90
13606;DHT22;6874;52.084;5.090;2023-02-24T09:11:58;3.90;99.90
13606;DHT22;6874;52.084;5.090;2023-02-24T09:14:27;3.90;99.90
13606;DHT22;6874;52.084;5.090;2023-02-24T09:16:57;3.90;99.90
13606;DHT22;6874;52.084;5.090;2023-02-24T09:19:45;4.10;99.90
13606;DHT22;6874;52.084;5.090;2023-02-24T09:22:14;4.30;99.90
13606;DHT22;6874;52.084;5.090;2023-02-24T09:25:06;4.40;99.90
13606;DHT22;6874;52.084;5.090;2023-02-24T09:30:34;4.50;99.90
13606;DHT22;6874;52.084;5.090;2023-02-24T09:33:08;4.50;99.90
13606;DHT22;6874;52.084;5.090;2023-02-24T09:35:49;4.50;99.90
13606;DHT22;6874;52.084;5.090;2023-02-24T09:38:17;4.40;99.90
13606;DHT22;6874;52.084;5.090;2023-02-24T09:40:48;4.50;99.90
13606;DHT22;6874;52.084;5.090;2023-02-24T09:43:27;4.40;99.90
13606;DHT22;6874;52.084;5.090;2023-02-24T09:46:05;4.50;99.90
13606;DHT22;6874;52.084;5.090;2023-02-24T09:49:16;4.50;99.90
13606;DHT22;6874;52.084;5.090;2023-02-24T09:51:42;4.50;99.90
13606;DHT22;6874;52.084;5.090;2023-02-24T09:54:16;4.50;99.90
13606;DHT22;6874;52.084;5.090;2023-02-24T09:57:11;4.50;99.90
13606;DHT22;6874;52.084;5.090;2023-02-24T09:59:54;4.50;99.90
13606;DHT22;6874;52.084;5.090;2023-02-24T10:02:56;4.50;99.90
13606;DHT22;6874;52.084;5.090;2023-02-24T10:05:56;4.60;99.90
13606;DHT22;6874;52.084;5.090;2023-02-24T10:08:33;4.60;99.90
13606;DHT22;6874;52.084;5.090;2023-02-24T10:11:02;4.60;99.90
13606;DHT22;6874;52.084;5.090;2023-02-24T10:13:40;4.60;99.90
13606;DHT22;6874;52.084;5.090;2023-02-24T10:16:12;4.60;99.90
13606;DHT22;6874;52.084;5.090;2023-02-24T10:18:51;4.60;99.90
13606;DHT22;6874;52.084;5.090;2023-02-24T10:21:45;4.70;99.90
13606;DHT22;6874;52.084;5.090;2023-02-24T10:24:46;4.70;99.90
13606;DHT22;6874;52.084;5.090;2023-02-24T10:27:27;4.70;99.90
13606;DHT22;6874;52.084;5.090;2023-02-24T10:30:17;4.70;99.90
13606;DHT22;6874;52.084;5.090;2023-02-24T10:32:57;4.70;99.90
13606;DHT22;6874;52.084;5.090;2023-02-24T10:35:27;4.70;99.90
13606;DHT22;6874;52.084;5.090;2023-02-24T10:37:58;4.80;99.90
13606;DHT22;6874;52.084;5.090;2023-02-24T10:40:30;4.80;99.90
13606;DHT22;6874;52.084;5.090;2023-02-24T10:43:17;4.80;99.90
13606;DHT22;6874;52.084;5.090;2023-02-24T10:45:45;4.80;99.90
13606;DHT22;6874;52.084;5.090;2023-02-24T10:48:23;4.80;99.90
13606;DHT22;6874;52.084;5.090;2023-02-24T10:50:53;4.80;99.90
13606;DHT22;6874;52.084;5.090;2023-02-24T10:53:23;4.90;99.90
13606;DHT22;6874;52.084;5.090;2023-02-24T10:55:54;4.90;99.90
13606;DHT22;6874;52.084;5.090;2023-02-24T10:58:39;4.90;99.90
13606;DHT22;6874;52.084;5.090;2023-02-24T11:01:28;4.90;99.90
13606;DHT22;6874;52.084;5.090;2023-02-24T11:04:33;4.90;99.90
13606;DHT22;6874;52.084;5.090;2023-02-24T11:07:19;5.00;99.90
13606;DHT22;6874;52.084;5.090;2023-02-24T11:10:14;5.00;99.90
13606;DHT22;6874;52.084;5.090;2023-02-24T11:12:50;5.00;99.90
13606;DHT22;6874;52.084;5.090;2023-02-24T11:15:43;5.00;99.90
13606;DHT22;6874;52.084;5.090;2023-02-24T11:18:29;5.00;99.90
13606;DHT22;6874;52.084;5.090;2023-02-24T11:23:39;5.10;99.90
13606;DHT22;6874;52.084;5.090;2023-02-24T11:26:20;5.10;99.90
13606;DHT22;6874;52.084;5.090;2023-02-24T11:33:58;5.20;99.90
13606;DHT22;6874;52.084;5.090;2023-02-24T11:42:14;5.30;99.90
13606;DHT22;6874;52.084;5.090;2023-02-24T11:47:38;5.30;99.90
13606;DHT22;6874;52.084;5.090;2023-02-24T11:52:48;5.30;99.90
13606;DHT22;6874;52.084;5.090;2023-02-24T11:55:29;5.40;99.90
13606;DHT22;6874;52.084;5.090;2023-02-24T11:57:59;5.40;99.90
13606;DHT22;6874;52.084;5.090;2023-02-24T12:00:31;5.40;99.90
13606;DHT22;6874;52.084;5.090;2023-02-24T12:03:22;5.50;99.90
13606;DHT22;6874;52.084;5.090;2023-02-24T12:05:53;5.50;99.90
13606;DHT22;6874;52.084;5.090;2023-02-24T12:08:48;5.50;99.90
13606;DHT22;6874;52.084;5.090;2023-02-24T12:12:21;5.60;99.90
13606;DHT22;6874;52.084;5.090;2023-02-24T12:14:40;5.60;99.90
13606;DHT22;6874;52.084;5.090;2023-02-24T12:23:00;5.80;99.90
13606;DHT22;6874;52.084;5.090;2023-02-24T12:25:36;5.80;99.90
13606;DHT22;6874;52.084;5.090;2023-02-24T12:28:31;5.90;99.90
13606;DHT22;6874;52.084;5.090;2023-02-24T12:31:25;6.00;99.90
13606;DHT22;6874;52.084;5.090;2023-02-24T12:34:20;6.00;99.90
13606;DHT22;6874;52.084;5.090;2023-02-24T12:42:59;6.20;99.90
13606;DHT22;6874;52.084;5.090;2023-02-24T12:45:43;6.30;99.90
13606;DHT22;6874;52.084;5.090;2023-02-24T12:48:27;6.40;99.90
13606;DHT22;6874;52.084;5.090;2023-02-24T12:51:17;6.40;99.90
13606;DHT22;6874;52.084;5.090;2023-02-24T12:53:58;6.50;99.90
13606;DHT22;6874;52.084;5.090;2023-02-24T12:59:27;6.60;99.90
13606;DHT22;6874;52.084;5.090;2023-02-24T13:02:07;6.60;99.90
13606;DHT22;6874;52.084;5.090;2023-02-24T13:05:01;6.70;99.90
13606;DHT22;6874;52.084;5.090;2023-02-24T13:10:08;6.80;99.90
13606;DHT22;6874;52.084;5.090;2023-02-24T13:12:42;6.80;99.90
13606;DHT22;6874;52.084;5.090;2023-02-24T13:15:22;6.80;99.90
13606;DHT22;6874;52.084;5.090;2023-02-24T13:17:50;6.80;99.90
13606;DHT22;6874;52.084;5.090;2023-02-24T13:20:33;6.90;99.90
13606;DHT22;6874;52.084;5.090;2023-02-24T13:23:01;6.90;99.90
13606;DHT22;6874;52.084;5.090;2023-02-24T13:25:34;6.90;99.90
13606;DHT22;6874;52.084;5.090;2023-02-24T13:28:04;6.90;99.90
13606;DHT22;6874;52.084;5.090;2023-02-24T13:33:48;7.00;99.90
13606;DHT22;6874;52.084;5.090;2023-02-24T13:36:17;7.00;99.90
13606;DHT22;6874;52.084;5.090;2023-02-24T13:38:47;7.00;99.90
13606;DHT22;6874;52.084;5.090;2023-02-24T13:43:58;7.10;99.90
13606;DHT22;6874;52.084;5.090;2023-02-24T13:46:27;7.20;99.90
13606;DHT22;6874;52.084;5.090;2023-02-24T13:51:52;7.30;99.90
13606;DHT22;6874;52.084;5.090;2023-02-24T13:57:21;7.30;99.90
13606;DHT22;6874;52.084;5.090;2023-02-24T14:02:28;7.40;99.90
13606;DHT22;6874;52.084;5.090;2023-02-24T14:04:57;7.40;99.90
13606;DHT22;6874;52.084;5.090;2023-02-24T14:07:26;7.40;99.90
13606;DHT22;6874;52.084;5.090;2023-02-24T14:09:56;7.50;99.90
13606;DHT22;6874;52.084;5.090;2023-02-24T14:12:48;7.50;99.90
13606;DHT22;6874;52.084;5.090;2023-02-24T14:15:24;7.50;99.90
13606;DHT22;6874;52.084;5.090;2023-02-24T14:18:02;7.50;99.90
13606;DHT22;6874;52.084;5.090;2023-02-24T14:20:32;7.40;99.90
13606;DHT22;6874;52.084;5.090;2023-02-24T14:22:59;7.40;99.90
13606;DHT22;6874;52.084;5.090;2023-02-24T14:25:29;7.40;99.90
13606;DHT22;6874;52.084;5.090;2023-02-24T14:27:56;7.50;99.90
13606;DHT22;6874;52.084;5.090;2023-02-24T14:30:32;7.40;99.90
13606;DHT22;6874;52.084;5.090;2023-02-24T14:32:58;7.50;99.90
13606;DHT22;6874;52.084;5.090;2023-02-24T14:35:44;7.50;99.90
13606;DHT22;6874;52.084;5.090;2023-02-24T14:40:51;7.50;99.90
13606;DHT22;6874;52.084;5.090;2023-02-24T14:43:17;7.50;99.90
13606;DHT22;6874;52.084;5.090;2023-02-24T14:45:48;7.60;99.90
13606;DHT22;6874;52.084;5.090;2023-02-24T14:48:41;7.60;99.90
13606;DHT22;6874;52.084;5.090;2023-02-24T14:51:09;7.70;99.90
13606;DHT22;6874;52.084;5.090;2023-02-24T14:53:45;7.70;99.90
13606;DHT22;6874;52.084;5.090;2023-02-24T14:56:12;7.70;99.90
13606;DHT22;6874;52.084;5.090;2023-02-24T14:58:43;7.70;99.90
13606;DHT22;6874;52.084;5.090;2023-02-24T15:01:38;7.70;99.90
13606;DHT22;6874;52.084;5.090;2023-02-24T15:06:45;7.70;99.90
13606;DHT22;6874;52.084;5.090;2023-02-24T15:09:22;7.80;99.90
13606;DHT22;6874;52.084;5.090;2023-02-24T15:11:49;7.70;99.90
13606;DHT22;6874;52.084;5.090;2023-02-24T15:14:25;7.70;99.90
13606;DHT22;6874;52.084;5.090;2023-02-24T15:16:54;7.70;99.90
13606;DHT22;6874;52.084;5.090;2023-02-24T15:19:33;7.70;99.90
13606;DHT22;6874;52.084;5.090;2023-02-24T15:24:46;7.70;99.90
13606;DHT22;6874;52.084;5.090;2023-02-24T15:29:55;7.70;99.90
13606;DHT22;6874;52.084;5.090;2023-02-24T15:32:24;7.70;99.90
13606;DHT22;6874;52.084;5.090;2023-02-24T15:34:50;7.70;99.90
13606;DHT22;6874;52.084;5.090;2023-02-24T15:37:25;7.70;99.90
13606;DHT22;6874;52.084;5.090;2023-02-24T15:40:04;7.70;99.90
13606;DHT22;6874;52.084;5.090;2023-02-24T15:42:32;7.60;99.90
13606;DHT22;6874;52.084;5.090;2023-02-24T15:45:04;7.70;99.90
13606;DHT22;6874;52.084;5.090;2023-02-24T15:47:41;7.60;99.90
13606;DHT22;6874;52.084;5.090;2023-02-24T15:50:07;7.60;99.90
13606;DHT22;6874;52.084;5.090;2023-02-24T15:52:35;7.60;99.90
13606;DHT22;6874;52.084;5.090;2023-02-24T15:55:01;7.60;99.90
13606;DHT22;6874;52.084;5.090;2023-02-24T15:57:29;7.60;99.90
13606;DHT22;6874;52.084;5.090;2023-02-24T15:59:55;7.50;99.90
13606;DHT22;6874;52.084;5.090;2023-02-24T16:02:22;7.50;99.90
13606;DHT22;6874;52.084;5.090;2023-02-24T16:04:49;7.50;99.90
13606;DHT22;6874;52.084;5.090;2023-02-24T16:07:23;7.50;99.90
13606;DHT22;6874;52.084;5.090;2023-02-24T16:09:51;7.50;99.90
13606;DHT22;6874;52.084;5.090;2023-02-24T16:12:21;7.40;99.90
13606;DHT22;6874;52.084;5.090;2023-02-24T16:14:49;7.40;99.90
13606;DHT22;6874;52.084;5.090;2023-02-24T16:17:27;7.40;99.90
13606;DHT22;6874;52.084;5.090;2023-02-24T16:19:54;7.40;99.90
13606;DHT22;6874;52.084;5.090;2023-02-24T16:22:21;7.40;99.90
13606;DHT22;6874;52.084;5.090;2023-02-24T16:24:47;7.40;99.90
13606;DHT22;6874;52.084;5.090;2023-02-24T16:27:15;7.30;99.90
13606;DHT22;6874;52.084;5.090;2023-02-24T16:29:41;7.30;99.90
13606;DHT22;6874;52.084;5.090;2023-02-24T16:32:12;7.30;99.90
13606;DHT22;6874;52.084;5.090;2023-02-24T16:34:38;7.30;99.90
13606;DHT22;6874;52.084;5.090;2023-02-24T16:37:14;7.20;99.90
13606;DHT22;6874;52.084;5.090;2023-02-24T16:39:41;7.20;99.90
13606;DHT22;6874;52.084;5.090;2023-02-24T16:42:09;7.20;99.90
13606;DHT22;6874;52.084;5.090;2023-02-24T16:44:34;7.10;99.90
13606;DHT22;6874;52.084;5.090;2023-02-24T16:47:00;7.10;99.90
13606;DHT22;6874;52.084;5.090;2023-02-24T16:49:26;7.10;99.90
13606;DHT22;6874;52.084;5.090;2023-02-24T16:51:51;7.00;99.90
13606;DHT22;6874;52.084;5.090;2023-02-24T16:54:17;7.00;99.90
13606;DHT22;6874;52.084;5.090;2023-02-24T16:56:46;7.00;99.90
13606;DHT22;6874;52.084;5.090;2023-02-24T16:59:12;7.00;99.90
13606;DHT22;6874;52.084;5.090;2023-02-24T17:01:37;6.90;99.90
13606;DHT22;6874;52.084;5.090;2023-02-24T17:04:05;6.90;99.90
13606;DHT22;6874;52.084;5.090;2023-02-24T17:06:34;6.90;99.90
13606;DHT22;6874;52.084;5.090;2023-02-24T17:09:00;6.90;99.90
13606;DHT22;6874;52.084;5.090;2023-02-24T17:11:27;6.80;99.90
13606;DHT22;6874;52.084;5.090;2023-02-24T17:13:53;6.80;99.90
13606;DHT22;6874;52.084;5.090;2023-02-24T17:16:18;6.80;99.90
13606;DHT22;6874;52.084;5.090;2023-02-24T17:18:44;6.80;99.90
13606;DHT22;6874;52.084;5.090;2023-02-24T17:21:14;6.70;99.90
13606;DHT22;6874;52.084;5.090;2023-02-24T17:23:40;6.80;99.90
13606;DHT22;6874;52.084;5.090;2023-02-24T17:26:06;6.70;99.90
13606;DHT22;6874;52.084;5.090;2023-02-24T17:28:34;6.70;99.90
13606;DHT22;6874;52.084;5.090;2023-02-24T17:31:00;6.70;99.90
13606;DHT22;6874;52.084;5.090;2023-02-24T17:33:25;6.60;99.90
13606;DHT22;6874;52.084;5.090;2023-02-24T17:35:51;6.60;99.90
13606;DHT22;6874;52.084;5.090;2023-02-24T17:38:19;6.60;99.90
13606;DHT22;6874;52.084;5.090;2023-02-24T17:40:46;6.60;99.90
13606;DHT22;6874;52.084;5.090;2023-02-24T17:43:12;6.60;99.90
13606;DHT22;6874;52.084;5.090;2023-02-24T17:45:42;6.60;99.90
13606;DHT22;6874;52.084;5.090;2023-02-24T17:48:10;6.60;99.90
13606;DHT22;6874;52.084;5.090;2023-02-24T17:50:36;6.60;99.90
13606;DHT22;6874;52.084;5.090;2023-02-24T17:53:02;6.60;99.90
13606;DHT22;6874;52.084;5.090;2023-02-24T17:55:27;6.50;99.90
13606;DHT22;6874;52.084;5.090;2023-02-24T17:57:53;6.50;99.90
13606;DHT22;6874;52.084;5.090;2023-02-24T18:00:19;6.50;99.90
13606;DHT22;6874;52.084;5.090;2023-02-24T18:02:44;6.50;99.90
13606;DHT22;6874;52.084;5.090;2023-02-24T18:05:10;6.50;99.90
13606;DHT22;6874;52.084;5.090;2023-02-24T18:07:36;6.50;99.90
13606;DHT22;6874;52.084;5.090;2023-02-24T18:10:02;6.40;99.90
13606;DHT22;6874;52.084;5.090;2023-02-24T18:12:28;6.40;99.90